Dera Bugti Weather



Dera Bugti's Current Weather

Temprature 17.99o clear sky

clear sky

Rain: 0 %

Min Temprature17.99o
Max Temprature17.99o
Humidity28
Wind Speed0.68 m/h
Sun Rise06:33:04
Sun Set17:41:04
Current Time: 28-Oct-2020 07:24:48
Lat/Lon: 29.03, 69.15




Dera Bugti's Geo Location



Dera Bugti's Weather Forecast

Time Overall Temp Min Temp Max Temp Humidity Wind Speed Rain
28-Oct-2020 (Wed)
08:00:00 clear sky 20.380 20.380 23.190 24 0.93 m/h 0 %
11:00:00 clear sky 26.720 26.720 29.210 17 1.39 m/h 0 %
14:00:00 clear sky 30.350 30.350 31.210 13 3.15 m/h 0 %
17:00:00 clear sky 29.240 29.240 29.330 13 3.24 m/h 0 %
20:00:00 clear sky 21.920 21.920 21.920 21 0.27 m/h 0 %
23:00:00 clear sky 20.440 20.440 20.440 23 0.72 m/h 0 %
29-Oct-2020 (Thu)
02:00:00 clear sky 19.110 19.110 19.110 25 0.96 m/h 0 %
05:00:00 clear sky 18.010 18.010 18.010 26 1.34 m/h 0 %
08:00:00 clear sky 23.050 23.050 23.050 19 1.65 m/h 0 %
11:00:00 clear sky 29.280 29.280 29.280 13 2.87 m/h 0 %
14:00:00 clear sky 31.020 31.020 31.020 12 4.73 m/h 0 %
17:00:00 clear sky 28.740 28.740 28.740 14 3.18 m/h 0 %
20:00:00 clear sky 22.300 22.300 22.300 21 1.27 m/h 0 %
23:00:00 clear sky 22.310 22.310 22.310 21 2.62 m/h 0 %
30-Oct-2020 (Fri)
02:00:00 clear sky 20.230 20.230 20.230 24 2.22 m/h 0 %
05:00:00 clear sky 18.510 18.510 18.510 26 1.92 m/h 0 %
08:00:00 clear sky 22.840 22.840 22.840 20 2.27 m/h 0 %
11:00:00 clear sky 28.820 28.820 28.820 14 3.33 m/h 0 %
14:00:00 clear sky 30.490 30.490 30.490 12 3.09 m/h 0 %
17:00:00 clear sky 28.550 28.550 28.550 14 2.95 m/h 0 %
20:00:00 clear sky 21.890 21.890 21.890 21 0.88 m/h 0 %
23:00:00 clear sky 19.950 19.950 19.950 24 0.47 m/h 0 %
31-Oct-2020 (Sat)
02:00:00 clear sky 19.070 19.070 19.070 25 1.07 m/h 0 %
05:00:00 clear sky 18.510 18.510 18.510 26 1.36 m/h 0 %
08:00:00 clear sky 23.280 23.280 23.280 19 1.06 m/h 0 %
11:00:00 clear sky 29.100 29.100 29.100 14 2.45 m/h 0 %
14:00:00 clear sky 30.560 30.560 30.560 12 4.29 m/h 0 %
17:00:00 clear sky 28.510 28.510 28.510 14 3.28 m/h 0 %
20:00:00 clear sky 22.270 22.270 22.270 20 1.85 m/h 0 %
23:00:00 clear sky 20.560 20.560 20.560 23 1.88 m/h 0 %
01-Nov-2020 (Sun)
02:00:00 clear sky 18.750 18.750 18.750 25 1.49 m/h 0 %
05:00:00 clear sky 17.430 17.430 17.430 27 1.49 m/h 0 %
08:00:00 clear sky 22.630 22.630 22.630 19 2.24 m/h 0 %
11:00:00 clear sky 29.550 29.550 29.550 11 1.7 m/h 0 %
14:00:00 clear sky 31.000 31.000 31.000 10 2.77 m/h 0 %
17:00:00 clear sky 28.420 28.420 28.420 12 4.02 m/h 0 %
20:00:00 clear sky 23.140 23.140 23.140 17 4.09 m/h 0 %
23:00:00 clear sky 20.700 20.700 20.700 19 2.5 m/h 0 %
02-Nov-2020 (Mon)
02:00:00 clear sky 19.510 19.510 19.510 20 2.41 m/h 0 %
05:00:00 clear sky 17.950 17.950 17.950 22 2.15 m/h 0 %

Famous Cities (60)